Time;durP1;ratioP1;P1;durP2;ratioP2;P2;SDS_P1;SDS_P2;PMS_P1;PMS_P2;Temp;Humidity;BMP_temperature;BMP_pressure;BME280_temperature;BME280_humidity;BME280_pressure;Samples;Min_cycle;Max_cycle;Signal;HPM_P1;HPM_P2
2023/05/07 00:01:03;;;;;;;;;;;;;;;-145.50;100.00;65435.88;4998866;28;20318;-73
2023/05/07 00:03:29;;;;;;;;;;;;;;;-145.50;100.00;65435.88;5007211;28;20294;-73
2023/05/07 00:05:55;;;;;;;;;;;;;;;-145.50;100.00;65435.88;5007211;28;20360;-73
2023/05/07 00:08:22;;;;;;;;;;;;;;;-145.50;100.00;65435.88;4994941;28;19926;-73
2023/05/07 00:10:48;;;;;;;;;;;;;;;-145.50;100.00;65435.88;5002717;28;19945;-73
2023/05/07 00:13:15;;;;;;;;;;;;;;;-145.50;100.00;65435.88;4997589;28;20194;-72
2023/05/07 00:15:41;;;;;;;;;;;;;;;-145.50;100.00;65435.88;5009345;28;19925;-73
2023/05/07 00:18:08;;;;;;;;;;;;;;;-145.50;100.00;65435.88;5008560;28;19926;-73
2023/05/07 00:20:34;;;;;;;;;;;;;;;-145.50;100.00;65435.88;5001524;28;20717;-73
2023/05/07 00:23:01;;;;;;;;;;;;;;;-145.50;100.00;65435.88;5000276;28;19967;-73
2023/05/07 00:25:28;;;;;;;;;;;;;;;-145.50;100.00;65435.88;4979223;28;20127;-73
2023/05/07 00:27:54;;;;;;;;;;;;;;;-145.50;100.00;65435.88;5001691;28;19976;-73
2023/05/07 00:30:21;;;;;;;;;;;;;;;-145.50;100.00;65435.88;5001258;28;19926;-73
2023/05/07 00:32:48;;;;;;;;;;;;;;;-145.50;100.00;65435.88;5005629;28;19951;-73
2023/05/07 00:35:15;;;;;;;;;;;;;;;-145.50;100.00;65435.88;5004008;28;19956;-72
2023/05/07 00:37:41;;;;;;;;;;;;;;;-145.50;100.00;65435.88;5004558;28;19975;-73
2023/05/07 00:40:08;;;;;;;;;;;;;;;-145.50;100.00;65435.88;5004041;28;20449;-73
2023/05/07 00:42:35;;;;;;;;;;;;;;;-145.50;100.00;65435.88;4999629;28;20377;-72
2023/05/07 00:45:02;;;;;;;;;;;;;;;-145.50;100.00;65435.88;5007542;28;19926;-73
2023/05/07 00:47:29;;;;;;;;;;;;;;;-145.50;100.00;65435.88;5004224;28;19936;-73
2023/05/07 00:49:56;;;;;;;;;;;;;;;-145.50;100.00;65435.88;5011063;28;19921;-73
2023/05/07 00:52:25;;;;;;;;;;;;;;;-145.50;100.00;65435.88;5005044;28;19932;-73
2023/05/07 00:54:52;;;;;;;;;;;;;;;-145.50;100.00;65435.88;5004353;28;20409;-73
2023/05/07 00:57:18;;;;;;;;;;;;;;;-145.50;100.00;65435.88;5009183;28;19949;-72
2023/05/07 00:59:45;;;;;;;;;;;;;;;-145.50;100.00;65435.88;5002728;28;19925;-72
2023/05/07 01:02:11;;;;;;;;;;;;;;;-145.50;100.00;65435.88;5009944;28;19933;-73
2023/05/07 01:04:37;;;;;;;;;;;;;;;-145.50;100.00;65435.88;5004435;28;21174;-73
2023/05/07 01:07:05;;;;;;;;;;;;;;;-145.50;100.00;65435.88;4993936;28;19921;-73
2023/05/07 01:09:31;;;;;;;;;;;;;;;-145.50;100.00;65435.88;5005902;28;20389;-74
2023/05/07 01:11:58;;;;;;;;;;;;;;;-145.50;100.00;65435.88;4997206;28;19921;-73
2023/05/07 01:14:25;;;;;;;;;;;;;;;-145.50;100.00;65435.88;5001067;28;19921;-73
2023/05/07 01:16:51;;;;;;;;;;;;;;;-145.50;100.00;65435.88;4998620;28;19981;-73
2023/05/07 01:19:19;;;;;;;;;;;;;;;-145.50;100.00;65435.88;4996815;28;19925;-73
2023/05/07 01:21:47;;;;;;;;;;;;;;;-145.50;100.00;65435.88;4988920;28;19988;-73
2023/05/07 01:24:14;;;;;;;;;;;;;;;-145.50;100.00;65435.88;5001904;28;19922;-73
2023/05/07 01:26:41;;;;;;;;;;;;;;;-145.50;100.00;65435.88;5001099;28;19929;-73
2023/05/07 01:29:07;;;;;;;;;;;;;;;-145.50;100.00;65435.88;4999992;28;20045;-73
2023/05/07 01:31:34;;;;;;;;;;;;;;;-145.50;100.00;65435.88;5007514;28;19925;-74
2023/05/07 01:34:01;;;;;;;;;;;;;;;-145.50;100.00;65435.88;4992887;28;19984;-74
2023/05/07 01:36:30;;;;;;;;;;;;;;;-145.50;100.00;65435.88;5004000;28;20363;-74
2023/05/07 01:38:57;;;;;;;;;;;;;;;-145.50;100.00;65435.88;5000236;28;19921;-74
2023/05/07 01:41:24;;;;;;;;;;;;;;;-145.50;100.00;65435.88;5007662;28;19925;-74
2023/05/07 01:43:51;;;;;;;;;;;;;;;-145.50;100.00;65435.88;5008994;28;19976;-74
2023/05/07 01:46:18;;;;;;;;;;;;;;;-145.50;100.00;65435.88;4988162;28;19936;-75
2023/05/07 01:48:45;;;;;;;;;;;;;;;-145.50;100.00;65435.88;5001167;28;19926;-74
2023/05/07 01:51:12;;;;;;;;;;;;;;;-145.50;100.00;65435.88;4996887;28;19967;-74
2023/05/07 01:53:40;;;;;;;;;;;;;;;-145.50;100.00;65435.88;5004863;28;20394;-74
2023/05/07 01:56:07;;;;;;;;;;;;;;;-145.50;100.00;65435.88;4993091;28;20355;-74
2023/05/07 01:58:33;;;;;;;;;;;;;;;-145.50;100.00;65435.88;5009768;28;20049;-73
2023/05/07 02:00:59;;;;;;;;;;;;;;;-145.50;100.00;65435.88;4999950;28;20323;-74
2023/05/07 02:03:26;;;;;;;;;;;;;;;-145.50;100.00;65435.88;4998475;28;19925;-74
2023/05/07 02:05:52;;;;;;;;;;;;;;;-145.50;100.00;65435.88;5009835;28;19932;-74
2023/05/07 02:08:19;;;;;;;;;;;;;;;-145.50;100.00;65435.88;5004592;28;19936;-74
2023/05/07 02:10:45;;;;;;;;;;;;;;;-145.50;100.00;65435.88;5005844;28;19926;-74
2023/05/07 02:13:11;;;;;;;;;;;;;;;-145.50;100.00;65435.88;4995029;28;19929;-74
2023/05/07 02:15:38;;;;;;;;;;;;;;;-145.50;100.00;65435.88;4999298;28;19988;-74
2023/05/07 02:18:06;;;;;;;;;;;;;;;-145.50;100.00;65435.88;4996280;28;20013;-74
2023/05/07 02:20:33;;;;;;;;;;;;;;;-145.50;100.00;65435.88;4993336;28;20441;-74
2023/05/07 02:23:00;;;;;;;;;;;;;;;-145.50;100.00;65435.88;5011371;28;19929;-74
2023/05/07 02:25:26;;;;;;;;;;;;;;;-145.50;100.00;65435.88;4996855;28;19925;-71
2023/05/07 02:27:53;;;;;;;;;;;;;;;-145.50;100.00;65435.88;5010196;28;20476;-71
2023/05/07 02:30:21;;;;;;;;;;;;;;;-145.50;100.00;65435.88;5005127;28;20029;-71
2023/05/07 02:32:47;;;;;;;;;;;;;;;-145.50;100.00;65435.88;5000372;28;20447;-71
2023/05/07 02:35:14;;;;;;;;;;;;;;;-145.50;100.00;65435.88;5007259;28;19925;-73
2023/05/07 02:37:40;;;;;;;;;;;;;;;-145.50;100.00;65435.88;5002230;28;19973;-73
2023/05/07 02:40:07;;;;;;;;;;;;;;;-145.50;100.00;65435.88;5008873;28;19964;-70
2023/05/07 02:42:33;;;;;;;;;;;;;;;-145.50;100.00;65435.88;5002440;28;20334;-73
2023/05/07 02:45:00;;;;;;;;;;;;;;;-145.50;100.00;65435.88;5005219;28;20143;-70
2023/05/07 02:47:27;;;;;;;;;;;;;;;-145.50;100.00;65435.88;5004515;28;19929;-71
2023/05/07 02:49:54;;;;;;;;;;;;;;;-145.50;100.00;65435.88;5003188;28;19964;-73
2023/05/07 02:52:21;;;;;;;;;;;;;;;-145.50;100.00;65435.88;5008127;28;20044;-71
2023/05/07 02:54:48;;;;;;;;;;;;;;;-145.50;100.00;65435.88;5000136;28;19931;-73
2023/05/07 02:57:14;;;;;;;;;;;;;;;-145.50;100.00;65435.88;4998674;28;19925;-74
2023/05/07 02:59:41;;;;;;;;;;;;;;;-145.50;100.00;65435.88;4996723;28;19925;-73
2023/05/07 03:02:07;;;;;;;;;;;;;;;-145.50;100.00;65435.88;5006066;28;19925;-72
2023/05/07 03:04:34;;;;;;;;;;;;;;;-145.50;100.00;65435.88;5016968;28;19985;-73
2023/05/07 03:07:00;;;;;;;;;;;;;;;-145.50;100.00;65435.88;5001923;28;20006;-70
2023/05/07 03:09:27;;;;;;;;;;;;;;;-145.50;100.00;65435.88;5011351;28;19971;-70
2023/05/07 03:11:53;;;;;;;;;;;;;;;-145.50;100.00;65435.88;5002623;28;19933;-70
2023/05/07 03:14:20;;;;;;;;;;;;;;;-145.50;100.00;65435.88;5007743;28;19930;-73
2023/05/07 03:16:46;;;;;;;;;;;;;;;-145.50;100.00;65435.88;5005891;28;20309;-71
2023/05/07 03:19:13;;;;;;;;;;;;;;;-145.50;100.00;65435.88;5027216;28;19932;-71
2023/05/07 03:21:39;;;;;;;;;;;;;;;-145.50;100.00;65435.88;5028113;28;19927;-71
2023/05/07 03:24:06;;;;;;;;;;;;;;;-145.50;100.00;65435.88;5016766;28;19925;-72
2023/05/07 03:26:32;;;;;;;;;;;;;;;-145.50;100.00;65435.88;5004250;28;19933;-71
2023/05/07 03:28:58;;;;;;;;;;;;;;;-145.50;100.00;65435.88;5002289;28;19925;-71
2023/05/07 03:31:25;;;;;;;;;;;;;;;-145.50;100.00;65435.88;5011433;28;19926;-72
2023/05/07 03:33:56;;;;;;;;;;;;;;;-145.50;100.00;65435.88;5009902;28;19921;-71
2023/05/07 03:36:23;;;;;;;;;;;;;;;-145.50;100.00;65435.88;5003898;28;19930;-72
2023/05/07 03:38:49;;;;;;;;;;;;;;;-145.50;100.00;65435.88;5004597;28;19925;-71
2023/05/07 03:41:16;;;;;;;;;;;;;;;-145.50;100.00;65435.88;4996345;28;19976;-71
2023/05/07 03:43:42;;;;;;;;;;;;;;;-145.50;100.00;65435.88;5009150;28;19928;-72
2023/05/07 03:46:09;;;;;;;;;;;;;;;-145.50;100.00;65435.88;4997278;28;20337;-72
2023/05/07 03:48:35;;;;;;;;;;;;;;;-145.50;100.00;65435.88;5019550;28;19931;-71
2023/05/07 03:51:01;;;;;;;;;;;;;;;-145.50;100.00;65435.88;5008415;28;19929;-71
2023/05/07 03:53:28;;;;;;;;;;;;;;;-145.50;100.00;65435.88;4997582;28;20016;-72
2023/05/07 03:55:54;;;;;;;;;;;;;;;-145.50;100.00;65435.88;5003551;28;19925;-71
2023/05/07 03:58:21;;;;;;;;;;;;;;;-145.50;100.00;65435.88;5001672;28;19921;-71
2023/05/07 04:00:47;;;;;;;;;;;;;;;-145.50;100.00;65435.88;5006899;28;19921;-71
2023/05/07 04:03:15;;;;;;;;;;;;;;;-145.50;100.00;65435.88;4997824;28;20337;-72
2023/05/07 04:05:42;;;;;;;;;;;;;;;-145.50;100.00;65435.88;5001854;28;19987;-72
2023/05/07 04:08:08;;;;;;;;;;;;;;;-145.50;100.00;65435.88;5001550;28;20404;-72
2023/05/07 04:10:34;;;;;;;;;;;;;;;-145.50;100.00;65435.88;5012256;28;20142;-72
2023/05/07 04:13:01;;;;;;;;;;;;;;;-145.50;100.00;65435.88;5006791;28;20819;-72
2023/05/07 04:15:27;;;;;;;;;;;;;;;-145.50;100.00;65435.88;5000450;28;20302;-71
2023/05/07 04:17:53;;;;;;;;;;;;;;;-145.50;100.00;65435.88;5007043;28;19959;-72
2023/05/07 04:20:20;;;;;;;;;;;;;;;-145.50;100.00;65435.88;4997039;28;19956;-71
2023/05/07 04:22:46;;;;;;;;;;;;;;;-145.50;100.00;65435.88;5002416;28;20389;-71
2023/05/07 04:25:13;;;;;;;;;;;;;;;-145.50;100.00;65435.88;5002364;28;20306;-71
2023/05/07 04:27:40;;;;;;;;;;;;;;;-145.50;100.00;65435.88;5000788;28;19925;-72
2023/05/07 04:30:06;;;;;;;;;;;;;;;-145.50;100.00;65435.88;5001242;28;19925;-72
2023/05/07 04:32:33;;;;;;;;;;;;;;;-145.50;100.00;65435.88;5001910;28;19921;-72
2023/05/07 04:34:59;;;;;;;;;;;;;;;-145.50;100.00;65435.88;5003717;28;19925;-72
2023/05/07 04:37:26;;;;;;;;;;;;;;;-145.50;100.00;65435.88;4994741;28;19928;-71
2023/05/07 04:39:52;;;;;;;;;;;;;;;-145.50;100.00;65435.88;4994068;28;20309;-71
2023/05/07 04:42:19;;;;;;;;;;;;;;;-145.50;100.00;65435.88;5014753;28;19948;-72
2023/05/07 04:44:45;;;;;;;;;;;;;;;-145.50;100.00;65435.88;5000487;28;19921;-71
2023/05/07 04:47:12;;;;;;;;;;;;;;;-145.50;100.00;65435.88;5003766;28;20132;-72
2023/05/07 04:49:38;;;;;;;;;;;;;;;-145.50;100.00;65435.88;4996030;28;19925;-72
2023/05/07 04:52:04;;;;;;;;;;;;;;;-145.50;100.00;65435.88;5006418;28;20818;-72
2023/05/07 04:54:31;;;;;;;;;;;;;;;-145.50;100.00;65435.88;5003488;28;20592;-72
2023/05/07 04:56:57;;;;;;;;;;;;;;;-145.50;100.00;65435.88;4998877;28;20374;-71
2023/05/07 04:59:24;;;;;;;;;;;;;;;-145.50;100.00;65435.88;5007433;28;19921;-72
2023/05/07 05:01:50;;;;;;;;;;;;;;;-145.50;100.00;65435.88;4996810;28;19932;-71
2023/05/07 05:04:17;;;;;;;;;;;;;;;-145.50;100.00;65435.88;5002708;28;20349;-72
2023/05/07 05:06:43;;;;;;;;;;;;;;;-145.50;100.00;65435.88;4998776;28;20342;-72
2023/05/07 05:09:10;;;;;;;;;;;;;;;-145.50;100.00;65435.88;5002122;28;19925;-71
2023/05/07 05:11:37;;;;;;;;;;;;;;;-145.50;100.00;65435.88;5002345;28;19932;-72
2023/05/07 05:14:03;;;;;;;;;;;;;;;-145.50;100.00;65435.88;5001169;28;20044;-72
2023/05/07 05:16:30;;;;;;;;;;;;;;;-145.50;100.00;65435.88;4997673;28;20410;-71
2023/05/07 05:18:56;;;;;;;;;;;;;;;-145.50;100.00;65435.88;4995843;28;19971;-71
2023/05/07 05:21:23;;;;;;;;;;;;;;;-145.50;100.00;65435.88;5003376;28;19935;-71
2023/05/07 05:23:49;;;;;;;;;;;;;;;-145.50;100.00;65435.88;5003004;28;19925;-72
2023/05/07 05:26:15;;;;;;;;;;;;;;;-145.50;100.00;65435.88;5004751;28;19926;-71
2023/05/07 05:28:42;;;;;;;;;;;;;;;-145.50;100.00;65435.88;4997967;28;20031;-71
2023/05/07 05:31:08;;;;;;;;;;;;;;;-145.50;100.00;65435.88;4992680;28;20564;-71
2023/05/07 05:33:35;;;;;;;;;;;;;;;-145.50;100.00;65435.88;4999797;28;19932;-72
2023/05/07 05:36:01;;;;;;;;;;;;;;;-145.50;100.00;65435.88;4998263;28;19973;-71
2023/05/07 05:38:28;;;;;;;;;;;;;;;-145.50;100.00;65435.88;4998815;28;19928;-71
2023/05/07 05:40:54;;;;;;;;;;;;;;;-145.50;100.00;65435.88;4997850;28;19934;-72
2023/05/07 05:43:22;;;;;;;;;;;;;;;-145.50;100.00;65435.88;5001632;28;20397;-72
2023/05/07 05:45:48;;;;;;;;;;;;;;;-145.50;100.00;65435.88;5000098;28;20565;-72
2023/05/07 05:48:14;;;;;;;;;;;;;;;-145.50;100.00;65435.88;5000757;28;19952;-72
2023/05/07 05:50:41;;;;;;;;;;;;;;;-145.50;100.00;65435.88;5007034;28;19925;-71
2023/05/07 05:53:08;;;;;;;;;;;;;;;-145.50;100.00;65435.88;5002444;28;19925;-72
2023/05/07 05:55:34;;;;;;;;;;;;;;;-145.50;100.00;65435.88;5005336;28;20277;-72
2023/05/07 05:58:01;;;;;;;;;;;;;;;-145.50;100.00;65435.88;4999626;28;19984;-73
2023/05/07 06:00:28;;;;;;;;;;;;;;;-145.50;100.00;65435.88;4989308;28;19928;-73
2023/05/07 06:02:55;;;;;;;;;;;;;;;-145.50;100.00;65435.88;5008154;28;19925;-72
2023/05/07 06:05:22;;;;;;;;;;;;;;;-145.50;100.00;65435.88;4999510;28;19983;-72
2023/05/07 06:07:48;;;;;;;;;;;;;;;-145.50;100.00;65435.88;5022186;28;19925;-72
2023/05/07 06:10:15;;;;;;;;;;;;;;;-145.50;100.00;65435.88;5001292;28;20012;-72
2023/05/07 06:12:41;;;;;;;;;;;;;;;-145.50;100.00;65435.88;5006637;28;20378;-72
2023/05/07 06:15:08;;;;;;;;;;;;;;;-145.50;100.00;65435.88;5001128;28;19936;-72
2023/05/07 06:17:34;;;;;;;;;;;;;;;-145.50;100.00;65435.88;5003999;28;19925;-72
2023/05/07 06:20:00;;;;;;;;;;;;;;;-145.50;100.00;65435.88;5005925;28;19968;-72
2023/05/07 06:22:27;;;;;;;;;;;;;;;-145.50;100.00;65435.88;5000679;28;19926;-72
2023/05/07 06:24:53;;;;;;;;;;;;;;;-145.50;100.00;65435.88;5001749;28;20448;-72
2023/05/07 06:27:20;;;;;;;;;;;;;;;-145.50;100.00;65435.88;4996860;28;19925;-73
2023/05/07 06:29:47;;;;;;;;;;;;;;;-145.50;100.00;65435.88;5009569;28;20416;-72
2023/05/07 06:32:14;;;;;;;;;;;;;;;-145.50;100.00;65435.88;5004340;28;19925;-72
2023/05/07 06:34:41;;;;;;;;;;;;;;;-145.50;100.00;65435.88;5002246;28;19928;-75
2023/05/07 06:37:07;;;;;;;;;;;;;;;-145.50;100.00;65435.88;5006955;28;19925;-72
2023/05/07 06:39:34;;;;;;;;;;;;;;;-145.50;100.00;65435.88;4994545;28;19925;-73
2023/05/07 06:42:01;;;;;;;;;;;;;;;-145.50;100.00;65435.88;5003354;28;19963;-73
2023/05/07 06:44:27;;;;;;;;;;;;;;;-145.50;100.00;65435.88;5000776;28;19961;-73
2023/05/07 06:46:54;;;;;;;;;;;;;;;-145.50;100.00;65435.88;5010449;28;19929;-73
2023/05/07 06:49:20;;;;;;;;;;;;;;;-145.50;100.00;65435.88;5008534;28;19925;-73
2023/05/07 06:51:46;;;;;;;;;;;;;;;-145.50;100.00;65435.88;4998444;28;20040;-72
2023/05/07 06:54:13;;;;;;;;;;;;;;;-145.50;100.00;65435.88;4994299;28;19925;-74
2023/05/07 06:56:39;;;;;;;;;;;;;;;-145.50;100.00;65435.88;4989985;28;20004;-73
2023/05/07 06:59:06;;;;;;;;;;;;;;;-145.50;100.00;65435.88;5001719;28;19926;-73
2023/05/07 07:01:32;;;;;;;;;;;;;;;-145.50;100.00;65435.88;4998816;28;19983;-73
2023/05/07 07:03:59;;;;;;;;;;;;;;;-145.50;100.00;65435.88;5006331;28;19925;-73
2023/05/07 07:06:25;;;;;;;;;;;;;;;-145.50;100.00;65435.88;4995833;28;19926;-73
2023/05/07 07:08:52;;;;;;;;;;;;;;;-145.50;100.00;65435.88;4981086;28;19932;-73
2023/05/07 07:11:18;;;;;;;;;;;;;;;-145.50;100.00;65435.88;5016995;28;19932;-73
2023/05/07 07:13:45;;;;;;;;;;;;;;;-145.50;100.00;65435.88;4991826;28;20567;-73
2023/05/07 07:16:11;;;;;;;;;;;;;;;-145.50;100.00;65435.88;5002733;28;19948;-74
2023/05/07 07:18:37;;;;;;;;;;;;;;;-145.50;100.00;65435.88;5003995;28;19921;-74
2023/05/07 07:21:04;;;;;;;;;;;;;;;-145.50;100.00;65435.88;5002874;28;20483;-73
2023/05/07 07:23:30;;;;;;;;;;;;;;;-145.50;100.00;65435.88;4998839;28;19932;-73
2023/05/07 07:25:57;;;;;;;;;;;;;;;-145.50;100.00;65435.88;4991898;28;19932;-73
2023/05/07 07:28:23;;;;;;;;;;;;;;;-145.50;100.00;65435.88;5002233;28;19925;-73
2023/05/07 07:30:49;;;;;;;;;;;;;;;-145.50;100.00;65435.88;4996834;28;19926;-73
2023/05/07 07:33:16;;;;;;;;;;;;;;;-145.50;100.00;65435.88;5005620;28;19930;-73
2023/05/07 07:35:42;;;;;;;;;;;;;;;-145.50;100.00;65435.88;4993626;28;20023;-74
2023/05/07 07:38:09;;;;;;;;;;;;;;;-145.50;100.00;65435.88;4992169;28;19961;-73
2023/05/07 07:40:35;;;;;;;;;;;;;;;-145.50;100.00;65435.88;5004223;28;19932;-73
2023/05/07 07:43:02;;;;;;;;;;;;;;;-145.50;100.00;65435.88;5002509;28;19925;-73
2023/05/07 07:45:28;;;;;;;;;;;;;;;-145.50;100.00;65435.88;5007934;28;19925;-74
2023/05/07 07:47:55;;;;;;;;;;;;;;;-145.50;100.00;65435.88;4995693;28;20329;-74
2023/05/07 07:50:21;;;;;;;;;;;;;;;-145.50;100.00;65435.88;4999392;28;19925;-73
2023/05/07 07:53:08;;;;;;;;;;;;;;;-145.50;100.00;65435.88;5007669;28;19921;-73
2023/05/07 07:55:38;;;;;;;;;;;;;;;-145.50;100.00;65435.88;5000529;28;19929;-73
2023/05/07 07:58:04;;;;;;;;;;;;;;;-145.50;100.00;65435.88;5008939;28;19936;-73
2023/05/07 08:00:31;;;;;;;;;;;;;;;-145.50;100.00;65435.88;5000732;28;19925;-74
2023/05/07 08:02:57;;;;;;;;;;;;;;;-145.50;100.00;65435.88;4988817;28;20420;-73
2023/05/07 08:05:24;;;;;;;;;;;;;;;-145.50;100.00;65435.88;4979568;28;20238;-73
2023/05/07 08:07:52;;;;;;;;;;;;;;;-145.50;100.00;65435.88;4998706;28;20389;-73
2023/05/07 08:10:21;;;;;;;;;;;;;;;-145.50;100.00;65435.88;5000708;28;19932;-74
2023/05/07 08:12:48;;;;;;;;;;;;;;;-145.50;100.00;65435.88;4999462;28;20012;-73
2023/05/07 08:15:15;;;;;;;;;;;;;;;-145.50;100.00;65435.88;5006042;28;20012;-73
2023/05/07 08:17:41;;;;;;;;;;;;;;;-145.50;100.00;65435.88;4985376;28;19925;-74
2023/05/07 08:20:08;;;;;;;;;;;;;;;-145.50;100.00;65435.88;4993426;28;19932;-73
2023/05/07 08:22:35;;;;;;;;;;;;;;;-145.50;100.00;65435.88;5001874;28;20301;-73
2023/05/07 08:25:02;;;;;;;;;;;;;;;-145.50;100.00;65435.88;5017581;28;19925;-73
2023/05/07 08:27:29;;;;;;;;;;;;;;;-145.50;100.00;65435.88;5022410;28;19925;-73
2023/05/07 08:29:56;;;;;;;;;;;;;;;-145.50;100.00;65435.88;5018860;28;19992;-73
2023/05/07 08:32:22;;;;;;;;;;;;;;;-145.50;100.00;65435.88;5009068;28;19929;-73
2023/05/07 08:34:50;;;;;;;;;;;;;;;-145.50;100.00;65435.88;5005996;28;19925;-73
2023/05/07 08:37:16;;;;;;;;;;;;;;;-145.50;100.00;65435.88;5010381;28;19925;-73
2023/05/07 08:39:43;;;;;;;;;;;;;;;-145.50;100.00;65435.88;5003916;28;20011;-73
2023/05/07 08:42:09;;;;;;;;;;;;;;;-145.50;100.00;65435.88;5006029;28;19988;-73
2023/05/07 08:44:38;;;;;;;;;;;;;;;-145.50;100.00;65435.88;5004259;28;19932;-73
2023/05/07 08:47:06;;;;;;;;;;;;;;;-145.50;100.00;65435.88;4998954;28;20677;-74
2023/05/07 08:49:33;;;;;;;;;;;;;;;-145.50;100.00;65435.88;5007408;28;19921;-74
2023/05/07 08:52:00;;;;;;;;;;;;;;;-145.50;100.00;65435.88;5001647;28;20366;-72
2023/05/07 08:54:27;;;;;;;;;;;;;;;-145.50;100.00;65435.88;4998388;28;19925;-73
2023/05/07 08:56:53;;;;;;;;;;;;;;;-145.50;100.00;65435.88;5002377;28;19936;-74
2023/05/07 08:59:20;;;;;;;;;;;;;;;-145.50;100.00;65435.88;5001945;28;19932;-73
2023/05/07 09:01:46;;;;;;;;;;;;;;;-145.50;100.00;65435.88;5002885;28;20024;-73
2023/05/07 09:04:13;;;;;;;;;;;;;;;-145.50;100.00;65435.88;5001452;28;19995;-74
2023/05/07 09:06:41;;;;;;;;;;;;;;;-145.50;100.00;65435.88;5017006;28;19925;-75
2023/05/07 09:09:08;;;;;;;;;;;;;;;-145.50;100.00;65435.88;5007045;28;19972;-73
2023/05/07 09:11:34;;;;;;;;;;;;;;;-145.50;100.00;65435.88;5001024;28;19929;-74
2023/05/07 09:14:02;;;;;;;;;;;;;;;-145.50;100.00;65435.88;4994410;28;19926;-73
2023/05/07 09:16:30;;;;;;;;;;;;;;;-145.50;100.00;65435.88;4999798;28;19934;-74
2023/05/07 09:18:57;;;;;;;;;;;;;;;-145.50;100.00;65435.88;5006311;28;20500;-73
2023/05/07 09:21:24;;;;;;;;;;;;;;;-145.50;100.00;65435.88;4999326;28;19925;-73
2023/05/07 09:23:51;;;;;;;;;;;;;;;-145.50;100.00;65435.88;5011376;28;19921;-73
2023/05/07 09:26:18;;;;;;;;;;;;;;;-145.50;100.00;65435.88;5006912;28;19983;-73
2023/05/07 09:28:46;;;;;;;;;;;;;;;-145.50;100.00;65435.88;4996526;28;19921;-73
2023/05/07 09:31:12;;;;;;;;;;;;;;;-145.50;100.00;65435.88;4991610;28;19928;-73
2023/05/07 09:33:39;;;;;;;;;;;;;;;-145.50;100.00;65435.88;5007306;28;19925;-73
2023/05/07 09:36:07;;;;;;;;;;;;;;;-145.50;100.00;65435.88;5006245;28;19932;-73
2023/05/07 09:38:34;;;;;;;;;;;;;;;-145.50;100.00;65435.88;4992427;28;19944;-73
2023/05/07 09:41:01;;;;;;;;;;;;;;;-145.50;100.00;65435.88;5005156;28;20012;-73
2023/05/07 09:43:31;;;;;;;;;;;;;;;-145.50;100.00;65435.88;5001788;28;20344;-73
2023/05/07 09:45:58;;;;;;;;;;;;;;;-145.50;100.00;65435.88;5011406;28;19954;-73
2023/05/07 09:48:25;;;;;;;;;;;;;;;-145.50;100.00;65435.88;5007366;28;19909;-72
2023/05/07 09:50:55;;;;;;;;;;;;;;;-145.50;100.00;65435.88;5010231;28;20012;-73
2023/05/07 09:53:22;;;;;;;;;;;;;;;-145.50;100.00;65435.88;5010230;28;19921;-73
2023/05/07 09:55:49;;;;;;;;;;;;;;;-145.50;100.00;65435.88;4998700;28;20425;-73
2023/05/07 09:58:16;;;;;;;;;;;;;;;-145.50;100.00;65435.88;5006169;28;20388;-73
2023/05/07 10:00:42;;;;;;;;;;;;;;;-145.50;100.00;65435.88;4999613;28;19932;-73
2023/05/07 10:03:09;;;;;;;;;;;;;;;-145.50;100.00;65435.88;5003881;28;20016;-73
2023/05/07 10:05:37;;;;;;;;;;;;;;;-145.50;100.00;65435.88;4997729;28;20289;-73
2023/05/07 10:08:03;;;;;;;;;;;;;;;-145.50;100.00;65435.88;5016187;28;19922;-73
2023/05/07 10:10:30;;;;;;;;;;;;;;;-145.50;100.00;65435.88;4989221;28;20381;-75
2023/05/07 10:12:57;;;;;;;;;;;;;;;-145.50;100.00;65435.88;4994361;28;19979;-73
2023/05/07 10:15:25;;;;;;;;;;;;;;;-145.50;100.00;65435.88;5003830;28;19926;-73
2023/05/07 10:17:53;;;;;;;;;;;;;;;-145.50;100.00;65435.88;4990479;28;20421;-73
2023/05/07 10:20:19;;;;;;;;;;;;;;;-145.50;100.00;65435.88;4992740;28;19925;-73
2023/05/07 10:22:47;;;;;;;;;;;;;;;-145.50;100.00;65435.88;4994318;28;19936;-75
2023/05/07 10:25:20;;;;;;;;;;;;;;;-145.50;100.00;65435.88;5001377;28;19925;-73
2023/05/07 10:27:48;;;;;;;;;;;;;;;-145.50;100.00;65435.88;4998981;28;19964;-73
2023/05/07 10:30:20;;;;;;;;;;;;;;;-145.50;100.00;65435.88;5000672;28;20405;-73
2023/05/07 10:32:50;;;;;;;;;;;;;;;-145.50;100.00;65435.88;5006610;28;19947;-73
2023/05/07 10:35:25;;;;;;;;;;;;;;;-145.50;100.00;65435.88;4996355;28;20406;-73
2023/05/07 10:37:52;;;;;;;;;;;;;;;-145.50;100.00;65435.88;5003980;28;20480;-73
2023/05/07 10:40:20;;;;;;;;;;;;;;;-145.50;100.00;65435.88;5000303;28;20452;-74
2023/05/07 10:42:53;;;;;;;;;;;;;;;-145.50;100.00;65435.88;5009004;28;19927;-73
2023/05/07 10:45:20;;;;;;;;;;;;;;;-145.50;100.00;65435.88;5023032;28;19972;-74
2023/05/07 10:48:05;;;;;;;;;;;;;;;-145.50;100.00;65435.88;4995365;28;20290;-75
2023/05/07 10:50:46;;;;;;;;;;;;;;;-145.50;100.00;65435.88;5008469;28;19921;-74
2023/05/07 10:53:19;;;;;;;;;;;;;;;-145.50;100.00;65435.88;4994184;28;19926;-74
2023/05/07 10:55:50;;;;;;;;;;;;;;;-145.50;100.00;65435.88;5007247;28;19925;-75
2023/05/07 10:58:19;;;;;;;;;;;;;;;-145.50;100.00;65435.88;4996998;28;19925;-74
2023/05/07 11:00:58;;;;;;;;;;;;;;;-145.50;100.00;65435.88;5004563;28;19957;-74
2023/05/07 11:03:26;;;;;;;;;;;;;;;-145.50;100.00;65435.88;5000784;28;19925;-74
2023/05/07 11:06:13;;;;;;;;;;;;;;;-145.50;100.00;65435.88;5007258;28;19928;-75
2023/05/07 11:08:52;;;;;;;;;;;;;;;-145.50;100.00;65435.88;5001599;28;19921;-76
2023/05/07 11:11:21;;;;;;;;;;;;;;;-145.50;100.00;65435.88;5006965;28;19984;-75
2023/05/07 11:13:49;;;;;;;;;;;;;;;-145.50;100.00;65435.88;5003603;28;19929;-75
2023/05/07 11:16:19;;;;;;;;;;;;;;;-145.50;100.00;65435.88;5005839;28;20439;-74
2023/05/07 11:18:50;;;;;;;;;;;;;;;-145.50;100.00;65435.88;5008776;28;20025;-77
2023/05/07 11:21:33;;;;;;;;;;;;;;;-145.50;100.00;65435.88;4996354;28;20020;-74
2023/05/07 11:24:00;;;;;;;;;;;;;;;-145.50;100.00;65435.88;5008509;28;19925;-75
2023/05/07 11:26:28;;;;;;;;;;;;;;;-145.50;100.00;65435.88;4994860;28;19949;-75
2023/05/07 11:28:54;;;;;;;;;;;;;;;-145.50;100.00;65435.88;4998569;28;19961;-76
2023/05/07 11:31:23;;;;;;;;;;;;;;;-145.50;100.00;65435.88;5005714;28;19975;-74
2023/05/07 11:33:50;;;;;;;;;;;;;;;-145.50;100.00;65435.88;5005586;28;19979;-75
2023/05/07 11:36:17;;;;;;;;;;;;;;;-145.50;100.00;65435.88;5005732;28;19925;-76
2023/05/07 11:38:44;;;;;;;;;;;;;;;-145.50;100.00;65435.88;5003561;28;19953;-74
2023/05/07 11:41:10;;;;;;;;;;;;;;;-145.50;100.00;65435.88;5012651;28;19925;-74
2023/05/07 11:43:37;;;;;;;;;;;;;;;-145.50;100.00;65435.88;5001336;28;19925;-75
2023/05/07 11:46:08;;;;;;;;;;;;;;;-145.50;100.00;65435.88;5010136;28;19931;-76
2023/05/07 11:48:35;;;;;;;;;;;;;;;-145.50;100.00;65435.88;5001650;28;19928;-76
2023/05/07 11:51:02;;;;;;;;;;;;;;;-145.50;100.00;65435.88;5008624;28;19929;-76
2023/05/07 11:53:36;;;;;;;;;;;;;;;-145.50;100.00;65435.88;5009989;28;19921;-76
2023/05/07 11:56:07;;;;;;;;;;;;;;;-145.50;100.00;65435.88;4989077;28;19976;-76
2023/05/07 11:58:33;;;;;;;;;;;;;;;-145.50;100.00;65435.88;5006844;28;19925;-77
2023/05/07 12:01:00;;;;;;;;;;;;;;;-145.50;100.00;65435.88;4998438;28;19937;-76
2023/05/07 12:03:26;;;;;;;;;;;;;;;-145.50;100.00;65435.88;5002158;28;19948;-73
2023/05/07 12:05:57;;;;;;;;;;;;;;;-145.50;100.00;65435.88;5003560;28;19925;-77
2023/05/07 12:08:23;;;;;;;;;;;;;;;-145.50;100.00;65435.88;5005187;28;19932;-77
2023/05/07 12:10:50;;;;;;;;;;;;;;;-145.50;100.00;65435.88;5002370;28;19964;-76
2023/05/07 12:13:21;;;;;;;;;;;;;;;-145.50;100.00;65435.88;5000082;28;19928;-76
2023/05/07 12:15:55;;;;;;;;;;;;;;;-145.50;100.00;65435.88;5004410;28;19922;-76
2023/05/07 12:18:22;;;;;;;;;;;;;;;-145.50;100.00;65435.88;4997608;28;19921;-76